Time;durP1;ratioP1;P1;durP2;ratioP2;P2;SDS_P1;SDS_P2;PMS_P1;PMS_P2;Temp;Humidity;BMP_temperature;BMP_pressure;BME280_temperature;BME280_humidity;BME280_pressure;Samples;Min_cycle;Max_cycle;Signal;HPM_P1;HPM_P2
2021/10/08 00:00:00;;;;;;;16.37;11.93;;;14.40;99.90;;;;;;4789728;29;20456;-94
2021/10/08 00:02:26;;;;;;;16.80;12.13;;;14.40;99.90;;;;;;4792986;30;20619;-95
2021/10/08 00:04:56;;;;;;;18.60;13.33;;;14.40;99.90;;;;;;4774736;30;20226;-94
2021/10/08 00:07:21;;;;;;;18.40;12.97;;;14.40;99.90;;;;;;4794213;30;20188;-95
2021/10/08 00:09:47;;;;;;;19.37;13.07;;;14.40;99.90;;;;;;4800437;29;20479;-96
2021/10/08 00:12:13;;;;;;;16.00;12.73;;;14.30;99.90;;;;;;4788873;30;20219;-95
2021/10/08 00:14:39;;;;;;;18.83;14.60;;;14.30;99.90;;;;;;4787599;29;20460;-96
2021/10/08 00:17:07;;;;;;;16.23;13.07;;;14.30;99.90;;;;;;4792180;30;20519;-96
2021/10/08 00:19:38;;;;;;;21.10;13.17;;;14.30;99.90;;;;;;4790431;29;20863;-96
2021/10/08 00:22:04;;;;;;;21.60;13.07;;;14.20;99.90;;;;;;4796048;30;20429;-96
2021/10/08 00:24:30;;;;;;;19.10;13.50;;;14.20;99.90;;;;;;4787779;29;20545;-96
2021/10/08 00:26:57;;;;;;;20.43;12.77;;;14.20;99.90;;;;;;4789823;30;20789;-96
2021/10/08 00:29:22;;;;;;;22.63;15.20;;;14.10;99.90;;;;;;4790772;29;20476;-96
2021/10/08 00:31:49;;;;;;;21.03;13.13;;;14.10;99.90;;;;;;4785193;29;21033;-96
2021/10/08 00:34:15;;;;;;;20.30;13.40;;;14.10;99.90;;;;;;4788577;30;20437;-95
2021/10/08 00:36:40;;;;;;;16.93;12.47;;;14.00;99.90;;;;;;4796786;30;20276;-94
2021/10/08 00:39:06;;;;;;;21.67;13.77;;;14.00;99.90;;;;;;4789287;30;20188;-96
2021/10/08 00:41:32;;;;;;;15.40;12.13;;;14.00;99.90;;;;;;4791598;30;20407;-96
2021/10/08 00:43:58;;;;;;;16.50;12.57;;;14.00;99.90;;;;;;4787731;30;20200;-94
2021/10/08 00:46:24;;;;;;;20.80;12.73;;;14.00;99.90;;;;;;4789462;29;20553;-95
2021/10/08 00:48:54;;;;;;;21.63;13.50;;;14.00;99.90;;;;;;4789995;30;20275;-95
2021/10/08 00:51:22;;;;;;;18.50;13.27;;;14.00;99.90;;;;;;4790006;29;20539;-96
2021/10/08 00:53:48;;;;;;;19.03;12.40;;;14.00;99.90;;;;;;4789237;30;20515;-95
2021/10/08 00:56:17;;;;;;;23.23;13.13;;;14.00;99.90;;;;;;4791536;29;20937;-96
2021/10/08 00:58:44;;;;;;;18.20;13.17;;;14.00;99.90;;;;;;4789730;30;20439;-96
2021/10/08 01:01:10;;;;;;;23.90;12.60;;;14.00;99.90;;;;;;4793600;29;20430;-96
2021/10/08 01:03:37;;;;;;;20.47;14.07;;;14.00;99.90;;;;;;4786795;30;20449;-94
2021/10/08 01:06:03;;;;;;;21.10;13.53;;;14.00;99.90;;;;;;4786612;29;20444;-94
2021/10/08 01:08:29;;;;;;;23.57;13.67;;;14.00;99.90;;;;;;4788587;30;21103;-96
2021/10/08 01:10:57;;;;;;;20.43;12.80;;;13.90;99.90;;;;;;4793440;29;20463;-96
2021/10/08 01:13:22;;;;;;;19.73;12.20;;;13.90;99.90;;;;;;4795818;30;20456;-96
2021/10/08 01:15:48;;;;;;;19.47;12.50;;;13.90;99.90;;;;;;4792473;29;20508;-95
2021/10/08 01:18:14;;;;;;;15.13;11.50;;;13.90;99.90;;;;;;4789037;29;20180;-96
2021/10/08 01:20:40;;;;;;;16.63;11.40;;;13.80;99.90;;;;;;4789403;29;20223;-96
2021/10/08 01:23:06;;;;;;;17.57;10.70;;;13.80;99.90;;;;;;4796304;30;20421;-95
2021/10/08 01:25:34;;;;;;;18.13;10.73;;;13.80;99.90;;;;;;4792449;29;20470;-96
2021/10/08 01:28:01;;;;;;;23.33;12.00;;;13.80;99.90;;;;;;4790412;30;20440;-94
2021/10/08 01:30:27;;;;;;;13.00;10.27;;;13.80;99.90;;;;;;4786616;29;20561;-96
2021/10/08 01:32:53;;;;;;;13.33;9.57;;;13.70;99.90;;;;;;4786431;30;20409;-96
2021/10/08 01:35:20;;;;;;;13.80;10.80;;;13.70;99.90;;;;;;4788923;29;20458;-95
2021/10/08 01:37:46;;;;;;;12.33;9.70;;;13.70;99.90;;;;;;4792550;30;20436;-94
2021/10/08 01:40:13;;;;;;;16.73;10.93;;;13.70;99.90;;;;;;4787615;29;20464;-95
2021/10/08 01:42:40;;;;;;;13.90;10.10;;;13.70;99.90;;;;;;4790391;30;20494;-93
2021/10/08 01:45:07;;;;;;;14.13;9.37;;;13.70;99.90;;;;;;4793171;29;20431;-96
2021/10/08 01:47:33;;;;;;;17.30;9.50;;;13.70;99.90;;;;;;4792452;29;20942;-94
2021/10/08 01:49:59;;;;;;;14.47;9.70;;;13.70;99.90;;;;;;4795326;29;21152;-95
2021/10/08 01:52:26;;;;;;;16.13;10.10;;;13.70;99.90;;;;;;4800641;29;20479;-96
2021/10/08 01:54:51;;;;;;;16.00;10.03;;;13.70;99.90;;;;;;4800979;29;20537;-96
2021/10/08 01:57:21;;;;;;;15.20;9.60;;;13.60;99.90;;;;;;4790062;30;20416;-96
2021/10/08 01:59:46;;;;;;;16.60;9.70;;;13.70;99.90;;;;;;4789595;29;20310;-96
2021/10/08 02:02:12;;;;;;;14.73;9.53;;;13.70;99.90;;;;;;4800326;29;20432;-95
2021/10/08 02:04:38;;;;;;;12.67;9.30;;;13.70;99.90;;;;;;4789751;29;20310;-95
2021/10/08 02:07:04;;;;;;;14.57;10.03;;;13.70;99.90;;;;;;4790752;29;20432;-95
2021/10/08 02:09:30;;;;;;;13.53;9.70;;;13.70;99.90;;;;;;4791766;29;20475;-96
2021/10/08 02:11:57;;;;;;;15.13;9.40;;;13.70;99.90;;;;;;4790090;29;20359;-96
2021/10/08 02:14:23;;;;;;;14.47;8.80;;;13.70;99.90;;;;;;4789115;29;20463;-95
2021/10/08 02:16:49;;;;;;;9.80;7.90;;;13.70;99.90;;;;;;4789275;29;20232;-96
2021/10/08 02:19:15;;;;;;;9.53;7.87;;;13.70;99.90;;;;;;4793686;30;20188;-95
2021/10/08 02:21:40;;;;;;;13.17;9.00;;;13.70;99.90;;;;;;4790610;30;20481;-96
2021/10/08 02:24:06;;;;;;;12.07;7.83;;;13.70;99.90;;;;;;4792928;29;20469;-96
2021/10/08 02:26:32;;;;;;;11.13;7.93;;;13.60;99.90;;;;;;4800072;29;20439;-95
2021/10/08 02:28:58;;;;;;;10.63;7.93;;;13.60;99.90;;;;;;4802205;29;20443;-95
2021/10/08 02:31:24;;;;;;;11.20;8.50;;;13.60;99.90;;;;;;4802954;29;20232;-96
2021/10/08 02:33:51;;;;;;;13.40;8.10;;;13.60;99.90;;;;;;4806190;29;20245;-94
2021/10/08 02:36:17;;;;;;;12.60;9.07;;;13.60;99.90;;;;;;4793455;29;20499;-95
2021/10/08 02:38:43;;;;;;;11.60;7.50;;;13.60;99.90;;;;;;4790622;29;20447;-96
2021/10/08 02:41:09;;;;;;;10.80;7.90;;;13.60;99.90;;;;;;4789926;29;20207;-96
2021/10/08 02:43:35;;;;;;;13.23;7.90;;;13.60;99.90;;;;;;4790197;29;20951;-95
2021/10/08 02:46:01;;;;;;;11.70;6.90;;;13.60;99.90;;;;;;4789439;29;20471;-95
2021/10/08 02:48:27;;;;;;;10.93;7.63;;;13.60;99.90;;;;;;4791601;29;20459;-95
2021/10/08 02:50:55;;;;;;;12.83;8.10;;;13.60;99.90;;;;;;4793378;29;20464;-96
2021/10/08 02:53:21;;;;;;;9.40;7.60;;;13.60;99.90;;;;;;4792889;29;20432;-95
2021/10/08 02:55:47;;;;;;;10.10;7.80;;;13.60;99.90;;;;;;4798067;29;20572;-96
2021/10/08 02:58:13;;;;;;;8.53;7.00;;;13.60;99.90;;;;;;4790650;30;20482;-96
2021/10/08 03:00:39;;;;;;;9.07;6.83;;;13.60;99.90;;;;;;4791307;29;20563;-96
2021/10/08 03:03:07;;;;;;;7.90;7.10;;;13.60;99.90;;;;;;4790064;29;20459;-96
2021/10/08 03:05:33;;;;;;;8.87;6.67;;;13.60;99.90;;;;;;4792167;29;20449;-96
2021/10/08 03:08:02;;;;;;;11.63;6.83;;;13.60;99.90;;;;;;4793457;29;20998;-96
2021/10/08 03:10:27;;;;;;;9.30;6.60;;;13.50;99.90;;;;;;4790588;29;20208;-96
2021/10/08 03:12:53;;;;;;;10.97;6.80;;;13.50;99.90;;;;;;4789538;29;20983;-94
2021/10/08 03:15:22;;;;;;;10.63;6.83;;;13.50;99.90;;;;;;4789186;29;20231;-95
2021/10/08 03:17:48;;;;;;;8.97;6.30;;;13.50;99.90;;;;;;4790543;30;20489;-96
2021/10/08 03:20:14;;;;;;;7.30;5.90;;;13.50;99.90;;;;;;4789600;29;20456;-95
2021/10/08 03:22:40;;;;;;;8.87;6.93;;;13.50;99.90;;;;;;4791930;29;20199;-95
2021/10/08 03:25:08;;;;;;;8.80;6.60;;;13.50;99.90;;;;;;4789722;29;20214;-96
2021/10/08 03:27:39;;;;;;;8.20;6.60;;;13.50;99.90;;;;;;4789641;30;20436;-96
2021/10/08 03:30:07;;;;;;;8.68;6.10;;;13.50;99.90;;;;;;4797765;29;21069;-95
2021/10/08 03:32:33;;;;;;;11.17;8.27;;;13.50;99.90;;;;;;4797456;29;20213;-96
2021/10/08 03:34:59;;;;;;;8.00;5.87;;;13.50;99.90;;;;;;4788592;29;21020;-95
2021/10/08 03:37:33;;;;;;;12.70;6.10;;;13.50;99.90;;;;;;4790780;29;20437;-95
2021/10/08 03:39:59;;;;;;;9.40;6.20;;;13.50;99.90;;;;;;4789308;29;20468;-96
2021/10/08 03:42:28;;;;;;;7.13;6.00;;;13.50;99.90;;;;;;4788505;30;20420;-96
2021/10/08 03:45:03;;;;;;;7.37;5.70;;;13.50;99.90;;;;;;4788434;29;20475;-96
2021/10/08 03:47:51;;;;;;;10.20;6.27;;;13.50;99.90;;;;;;4791655;30;20477;-96
2021/10/08 03:50:15;;;;;;;12.10;5.63;;;13.40;99.90;;;;;;4777012;30;20467;-94
2021/10/08 03:52:41;;;;;;;8.63;6.00;;;13.40;99.90;;;;;;4803129;29;20435;-96
2021/10/08 03:55:07;;;;;;;7.77;5.90;;;13.50;99.90;;;;;;4793222;29;20759;-95
2021/10/08 03:57:33;;;;;;;9.87;5.57;;;13.40;99.90;;;;;;4787752;29;20200;-95
2021/10/08 03:59:59;;;;;;;9.20;6.27;;;13.40;99.90;;;;;;4787550;29;20869;-96
2021/10/08 04:02:25;;;;;;;10.00;5.60;;;13.40;99.90;;;;;;4787821;29;20939;-95
2021/10/08 04:04:50;;;;;;;9.13;6.17;;;13.40;99.90;;;;;;4796797;29;20471;-96
2021/10/08 04:07:16;;;;;;;10.43;5.57;;;13.40;99.90;;;;;;4793764;30;20666;-96
2021/10/08 04:09:42;;;;;;;9.43;5.97;;;13.40;99.90;;;;;;4793881;29;20218;-94
2021/10/08 04:12:07;;;;;;;8.37;5.50;;;13.40;99.90;;;;;;4791298;29;20276;-96
2021/10/08 04:14:34;;;;;;;6.50;4.77;;;13.40;99.90;;;;;;4789303;29;20212;-95
2021/10/08 04:17:00;;;;;;;7.50;5.40;;;13.40;99.90;;;;;;4801387;30;20482;-94
2021/10/08 04:19:25;;;;;;;7.70;5.80;;;13.50;99.90;;;;;;4791362;29;20510;-95
2021/10/08 04:21:51;;;;;;;11.27;5.33;;;13.50;99.90;;;;;;4786279;29;20807;-95
2021/10/08 04:24:17;;;;;;;11.37;6.00;;;13.50;99.90;;;;;;4786058;29;20245;-96
2021/10/08 04:26:43;;;;;;;5.20;4.17;;;13.50;99.90;;;;;;4787704;30;20481;-96
2021/10/08 04:29:09;;;;;;;9.77;6.27;;;13.50;99.90;;;;;;4789101;30;20445;-95
2021/10/08 04:31:35;;;;;;;8.40;5.30;;;13.50;99.90;;;;;;4773926;30;20227;-96
2021/10/08 04:34:01;;;;;;;10.50;6.27;;;13.50;99.90;;;;;;4788473;29;20442;-95
2021/10/08 04:36:27;;;;;;;9.03;5.93;;;13.60;99.90;;;;;;4798313;29;20472;-95
2021/10/08 04:38:53;;;;;;;7.73;5.40;;;13.60;99.90;;;;;;4802895;29;20215;-95
2021/10/08 04:41:19;;;;;;;8.17;4.97;;;13.60;99.90;;;;;;4809748;29;20538;-96
2021/10/08 04:43:44;;;;;;;7.20;5.20;;;13.60;99.90;;;;;;4812626;29;20184;-95
2021/10/08 04:46:10;;;;;;;6.90;4.63;;;13.50;99.90;;;;;;4803577;29;20246;-96
2021/10/08 04:48:36;;;;;;;8.17;6.00;;;13.50;99.90;;;;;;4803254;29;20426;-94
2021/10/08 04:51:02;;;;;;;9.30;5.27;;;13.50;99.90;;;;;;4807341;29;20470;-94
2021/10/08 04:53:28;;;;;;;6.93;4.93;;;13.50;99.90;;;;;;4791549;29;20199;-95
2021/10/08 04:55:53;;;;;;;6.80;4.93;;;13.50;99.90;;;;;;4794500;29;20262;-96
2021/10/08 04:58:19;;;;;;;6.23;5.20;;;13.40;99.90;;;;;;4798808;29;20910;-95
2021/10/08 05:00:45;;;;;;;7.90;6.03;;;13.40;99.90;;;;;;4793645;29;21154;-94
2021/10/08 05:03:16;;;;;;;6.47;5.20;;;13.40;99.90;;;;;;4790497;29;20411;-96
2021/10/08 05:05:47;;;;;;;8.07;5.27;;;13.30;99.90;;;;;;4776793;30;20525;-95
2021/10/08 05:08:15;;;;;;;8.10;5.03;;;13.30;99.90;;;;;;4774521;30;20452;-96
2021/10/08 05:10:42;;;;;;;18.57;12.50;;;13.20;99.90;;;;;;4774879;30;20459;-96
2021/10/08 05:13:08;;;;;;;10.23;6.60;;;13.10;99.90;;;;;;4771451;30;20481;-94
2021/10/08 05:15:33;;;;;;;12.03;7.83;;;13.20;99.90;;;;;;4777390;30;20484;-96
2021/10/08 05:18:00;;;;;;;9.90;5.53;;;13.10;99.90;;;;;;4790855;29;20690;-94
2021/10/08 05:20:26;;;;;;;11.25;5.13;;;13.10;99.90;;;;;;4798513;29;20218;-94
2021/10/08 05:22:52;;;;;;;7.60;6.33;;;13.10;99.90;;;;;;4800095;29;20199;-93
2021/10/08 05:25:20;;;;;;;8.87;5.43;;;13.10;99.90;;;;;;4793064;29;20480;-96
2021/10/08 05:27:46;;;;;;;8.27;4.60;;;13.10;99.90;;;;;;4800939;29;20533;-95
2021/10/08 05:30:12;;;;;;;7.77;5.40;;;13.00;99.90;;;;;;4804013;29;20479;-96
2021/10/08 05:32:39;;;;;;;7.60;5.27;;;13.00;99.90;;;;;;4806914;29;20913;-96
2021/10/08 05:35:06;;;;;;;6.93;5.17;;;13.00;99.90;;;;;;4792496;29;20504;-94
2021/10/08 05:37:35;;;;;;;7.13;5.40;;;13.00;99.90;;;;;;4793365;29;20444;-96
2021/10/08 05:40:05;;;;;;;7.35;5.00;;;13.00;99.90;;;;;;4781288;30;20207;-95
2021/10/08 05:42:34;;;;;;;7.40;4.83;;;13.00;99.90;;;;;;4780829;30;20192;-96
2021/10/08 05:45:00;;;;;;;5.77;4.87;;;13.00;99.90;;;;;;4785700;29;20492;-95
2021/10/08 05:47:26;;;;;;;8.18;5.40;;;13.00;99.90;;;;;;4774939;30;20459;-95
2021/10/08 05:49:55;;;;;;;7.13;5.03;;;13.00;99.90;;;;;;4773460;30;20213;-96
2021/10/08 05:52:21;;;;;;;10.02;4.90;;;13.00;99.90;;;;;;4795079;30;20208;-96
2021/10/08 05:54:49;;;;;;;7.20;5.07;;;12.90;99.90;;;;;;4792258;29;20243;-96
2021/10/08 05:57:15;;;;;;;12.98;5.78;;;12.90;99.90;;;;;;4779910;30;20195;-94
2021/10/08 05:59:41;;;;;;;7.87;5.20;;;12.90;99.90;;;;;;4778776;30;20214;-96
2021/10/08 06:02:08;;;;;;;9.87;5.10;;;12.90;99.90;;;;;;4775652;30;20818;-96
2021/10/08 06:04:37;;;;;;;5.60;4.60;;;12.90;99.90;;;;;;4795583;29;20479;-96
2021/10/08 06:07:06;;;;;;;9.95;7.00;;;12.90;99.90;;;;;;4786673;29;20291;-96
2021/10/08 06:09:34;;;;;;;6.80;4.70;;;12.90;99.90;;;;;;4793317;29;20212;-94
2021/10/08 06:12:03;;;;;;;7.90;5.28;;;12.90;99.90;;;;;;4770766;30;20196;-96
2021/10/08 06:14:32;;;;;;;6.93;5.65;;;12.90;99.90;;;;;;4790461;29;20219;-96
2021/10/08 06:17:04;;;;;;;7.97;5.50;;;13.00;99.90;;;;;;4772497;30;20646;-93
2021/10/08 06:19:34;;;;;;;6.28;4.85;;;13.00;99.90;;;;;;4790855;29;20628;-96
2021/10/08 06:22:00;;;;;;;7.57;5.05;;;13.00;99.90;;;;;;4788512;30;20264;-95
2021/10/08 06:24:26;;;;;;;8.00;4.97;;;13.00;99.90;;;;;;4789312;29;20271;-94
2021/10/08 06:26:51;;;;;;;6.20;4.67;;;13.00;99.90;;;;;;4787901;29;20203;-94
2021/10/08 06:29:18;;;;;;;8.00;4.60;;;13.00;99.90;;;;;;4794118;30;20579;-96
2021/10/08 06:31:45;;;;;;;7.80;6.00;;;13.00;99.90;;;;;;4776363;30;20242;-96
2021/10/08 06:34:11;;;;;;;9.70;5.72;;;13.00;99.90;;;;;;4792030;30;20199;-95
2021/10/08 06:36:38;;;;;;;7.95;5.80;;;13.00;99.90;;;;;;4779802;30;20307;-96
2021/10/08 06:39:14;;;;;;;9.80;6.00;;;13.00;99.90;;;;;;4788242;29;20180;-96
2021/10/08 06:41:41;;;;;;;7.85;5.32;;;13.00;99.90;;;;;;4798719;30;20225;-94
2021/10/08 06:44:07;;;;;;;7.73;5.07;;;13.10;99.90;;;;;;4790522;29;20252;-95
2021/10/08 06:46:33;;;;;;;7.20;5.10;;;13.10;99.90;;;;;;4777007;29;20464;-94
2021/10/08 06:49:02;;;;;;;11.27;5.60;;;13.10;99.90;;;;;;4772804;30;20662;-95
2021/10/08 06:51:28;;;;;;;8.13;5.33;;;13.10;99.90;;;;;;4772528;30;20252;-92
2021/10/08 06:53:53;;;;;;;5.43;4.87;;;13.20;99.90;;;;;;4771460;30;20520;-96
2021/10/08 06:56:20;;;;;;;8.77;5.73;;;13.20;99.90;;;;;;4773595;30;20223;-94
2021/10/08 06:58:46;;;;;;;8.33;5.30;;;13.20;99.90;;;;;;4772628;30;20437;-95
2021/10/08 07:01:13;;;;;;;6.50;4.83;;;13.20;99.90;;;;;;4776142;30;20475;-94
2021/10/08 07:03:38;;;;;;;8.83;5.07;;;13.30;99.90;;;;;;4782553;30;20888;-95
2021/10/08 07:06:04;;;;;;;11.20;6.00;;;13.30;99.90;;;;;;4776067;30;20456;-96
2021/10/08 07:08:33;;;;;;;7.70;5.47;;;13.30;99.90;;;;;;4800679;29;20234;-96
2021/10/08 07:11:04;;;;;;;7.10;5.03;;;13.30;99.90;;;;;;4777246;29;20484;-96
2021/10/08 07:13:35;;;;;;;6.70;5.23;;;13.40;99.90;;;;;;4792093;29;20459;-96
2021/10/08 07:16:01;;;;;;;9.20;5.13;;;13.40;99.90;;;;;;4776139;30;20487;-95
2021/10/08 07:18:34;;;;;;;7.55;5.50;;;13.40;99.90;;;;;;4786878;30;20798;-94
2021/10/08 07:21:04;;;;;;;11.17;5.63;;;13.50;99.90;;;;;;4773235;30;20230;-94
2021/10/08 07:23:33;;;;;;;7.40;5.30;;;13.50;99.90;;;;;;4788609;30;20609;-96
2021/10/08 07:25:59;;;;;;;9.23;5.33;;;13.50;99.90;;;;;;4789538;29;20531;-95
2021/10/08 07:28:28;;;;;;;8.30;5.63;;;13.50;99.90;;;;;;4798162;29;20461;-96
2021/10/08 07:30:54;;;;;;;8.35;5.57;;;13.60;99.90;;;;;;4771329;29;20933;-95
2021/10/08 07:33:20;;;;;;;8.13;5.73;;;13.60;99.90;;;;;;4781047;29;20286;-94
2021/10/08 07:35:48;;;;;;;6.90;5.00;;;13.60;99.90;;;;;;4767614;30;20615;-95
2021/10/08 07:38:14;;;;;;;8.37;5.40;;;13.60;99.90;;;;;;4768214;30;20434;-95
2021/10/08 07:40:40;;;;;;;8.33;5.70;;;13.70;99.90;;;;;;4793546;29;20480;-95
2021/10/08 07:43:05;;;;;;;10.40;6.13;;;13.70;99.90;;;;;;4782230;30;20527;-94
2021/10/08 07:45:31;;;;;;;9.43;5.60;;;13.70;99.90;;;;;;4780757;30;20279;-95
2021/10/08 07:47:57;;;;;;;10.17;5.07;;;13.80;99.90;;;;;;4786615;29;20419;-95
2021/10/08 07:50:23;;;;;;;8.50;5.40;;;13.80;99.90;;;;;;4780065;30;20452;-93
2021/10/08 07:52:49;;;;;;;6.17;5.40;;;13.80;99.90;;;;;;4773296;30;20221;-93
2021/10/08 07:55:14;;;;;;;7.27;5.40;;;13.80;99.90;;;;;;4766928;30;20487;-93
2021/10/08 07:57:40;;;;;;;7.43;5.73;;;13.80;99.90;;;;;;4772060;30;20339;-94
2021/10/08 08:00:08;;;;;;;11.13;5.90;;;13.80;99.90;;;;;;4772032;30;20215;-94
2021/10/08 08:02:34;;;;;;;8.40;6.17;;;13.80;99.90;;;;;;4782416;30;20445;-96
2021/10/08 08:05:00;;;;;;;10.73;6.40;;;13.80;99.90;;;;;;4778770;30;20499;-92
2021/10/08 08:07:29;;;;;;;8.30;5.23;;;13.90;99.90;;;;;;4769514;30;20196;-92
2021/10/08 08:09:54;;;;;;;8.10;5.80;;;14.00;99.90;;;;;;4768443;30;20223;-94
2021/10/08 08:12:23;;;;;;;8.83;5.77;;;14.00;99.90;;;;;;4769769;30;20440;-96
2021/10/08 08:14:49;;;;;;;7.70;5.40;;;14.10;99.90;;;;;;4777539;30;20216;-96
2021/10/08 08:17:15;;;;;;;8.97;6.43;;;14.10;99.90;;;;;;4789569;30;20481;-95
2021/10/08 08:19:42;;;;;;;8.70;5.70;;;14.10;99.90;;;;;;4774025;30;20233;-96
2021/10/08 08:22:08;;;;;;;10.63;5.53;;;14.10;99.90;;;;;;4780232;30;20444;-96
2021/10/08 08:24:35;;;;;;;10.17;5.67;;;14.10;99.90;;;;;;4801014;29;20555;-96
2021/10/08 08:27:01;;;;;;;16.63;6.60;;;14.20;99.90;;;;;;4781362;30;20959;-94
2021/10/08 08:29:26;;;;;;;9.23;6.23;;;14.20;99.90;;;;;;4775541;29;20463;-96
2021/10/08 08:31:52;;;;;;;9.63;6.27;;;14.20;99.90;;;;;;4767324;30;20505;-94
2021/10/08 08:34:18;;;;;;;9.70;6.20;;;14.20;99.90;;;;;;4766068;30;20236;-95
2021/10/08 08:36:45;;;;;;;11.30;6.30;;;14.30;99.90;;;;;;4766584;30;20215;-96
2021/10/08 08:39:14;;;;;;;12.13;6.30;;;14.30;99.90;;;;;;4784325;30;20452;-96
2021/10/08 08:41:41;;;;;;;10.50;5.67;;;14.40;99.90;;;;;;4777294;30;20442;-94
2021/10/08 08:44:07;;;;;;;9.90;6.40;;;14.40;99.90;;;;;;4766198;30;20448;-96
2021/10/08 08:46:34;;;;;;;8.50;6.37;;;14.50;99.90;;;;;;4766422;30;20432;-93
2021/10/08 08:49:00;;;;;;;11.83;6.20;;;14.50;99.90;;;;;;4779330;29;20459;-96
2021/10/08 08:51:27;;;;;;;8.47;6.70;;;14.60;99.90;;;;;;4776837;30;20482;-95
2021/10/08 08:53:57;;;;;;;8.07;5.63;;;14.60;99.90;;;;;;4782209;30;20456;-96
2021/10/08 08:56:25;;;;;;;16.03;6.43;;;14.70;99.90;;;;;;4769343;30;21038;-96
2021/10/08 08:59:05;;;;;;;9.43;6.20;;;14.70;99.90;;;;;;4778146;29;20435;-94
2021/10/08 09:01:32;;;;;;;8.20;6.20;;;14.80;99.90;;;;;;4765793;30;20972;-95
2021/10/08 09:04:04;;;;;;;12.40;6.80;;;14.80;99.90;;;;;;4779280;30;20452;-96
2021/10/08 09:06:36;;;;;;;11.67;5.93;;;14.90;99.90;;;;;;4768273;30;20527;-94
2021/10/08 09:09:16;;;;;;;11.37;6.50;;;14.90;99.90;;;;;;4765668;30;20470;-94
2021/10/08 09:11:42;;;;;;;14.20;6.33;;;15.00;99.90;;;;;;4758441;30;20819;-96
2021/10/08 09:14:29;;;;;;;7.30;5.53;;;15.00;99.90;;;;;;4783113;30;20543;-95
2021/10/08 09:17:15;;;;;;;8.13;5.50;;;15.10;99.90;;;;;;4763931;30;20703;-94
2021/10/08 09:19:52;;;;;;;10.47;5.53;;;15.20;99.90;;;;;;4780361;30;20494;-94
2021/10/08 09:22:21;;;;;;;9.00;5.97;;;15.20;99.90;;;;;;4780859;30;20451;-95
2021/10/08 09:24:47;;;;;;;9.47;6.37;;;15.20;99.90;;;;;;4780923;29;20504;-94
2021/10/08 09:27:18;;;;;;;13.40;6.33;;;15.20;99.90;;;;;;4783027;29;20647;-96
2021/10/08 09:29:50;;;;;;;11.83;6.53;;;15.30;99.90;;;;;;4784149;29;20469;-94
2021/10/08 09:32:16;;;;;;;8.53;5.80;;;15.30;99.90;;;;;;4764370;30;20480;-96
2021/10/08 09:34:42;;;;;;;11.90;6.90;;;15.40;99.90;;;;;;4765837;30;21421;-95
2021/10/08 09:37:10;;;;;;;12.13;5.87;;;15.40;99.90;;;;;;4771376;30;20590;-96
2021/10/08 09:39:38;;;;;;;8.17;6.17;;;15.40;99.90;;;;;;4764336;30;20216;-94
2021/10/08 09:42:11;;;;;;;10.73;7.00;;;15.40;99.90;;;;;;4762585;30;20440;-96
2021/10/08 09:44:48;;;;;;;12.13;6.60;;;15.50;99.90;;;;;;4765625;30;21001;-94
2021/10/08 09:47:17;;;;;;;8.50;6.63;;;15.50;99.90;;;;;;4780259;30;20498;-95
2021/10/08 09:49:44;;;;;;;8.67;5.60;;;15.60;99.90;;;;;;4784136;30;20502;-96
2021/10/08 09:52:20;;;;;;;10.23;5.60;;;15.60;99.90;;;;;;4766199;30;20450;-96
2021/10/08 09:54:48;;;;;;;7.93;5.93;;;15.70;99.90;;;;;;4765878;30;20876;-95
2021/10/08 09:57:14;;;;;;;8.53;7.40;;;15.70;99.90;;;;;;4776694;30;20806;-94
2021/10/08 09:59:40;;;;;;;10.97;7.83;;;15.70;99.90;;;;;;4782501;29;20468;-94
2021/10/08 10:02:06;;;;;;;14.27;7.20;;;15.80;99.90;;;;;;4769022;30;20296;-93
2021/10/08 10:04:46;;;;;;;11.53;6.90;;;15.80;99.90;;;;;;4753907;30;20481;-96
2021/10/08 10:07:19;;;;;;;13.40;6.20;;;15.80;99.90;;;;;;4768464;30;20581;-93
2021/10/08 10:09:46;;;;;;;9.37;6.37;;;15.90;99.90;;;;;;4766288;30;20482;-94
2021/10/08 10:12:14;;;;;;;12.20;7.23;;;15.90;99.90;;;;;;4785361;30;20435;-95
2021/10/08 10:14:42;;;;;;;9.77;6.40;;;15.90;99.90;;;;;;4776130;30;20483;-94
2021/10/08 10:17:08;;;;;;;9.13;6.17;;;16.00;99.90;;;;;;4769986;30;20471;-95
2021/10/08 10:19:40;;;;;;;8.37;5.83;;;16.00;99.90;;;;;;4773005;30;20505;-95
2021/10/08 10:22:06;;;;;;;10.37;7.33;;;16.00;99.90;;;;;;4776169;30;20952;-95
2021/10/08 10:24:35;;;;;;;15.13;7.60;;;16.10;99.90;;;;;;4780104;30;20468;-96
2021/10/08 10:27:01;;;;;;;9.20;5.93;;;16.10;99.90;;;;;;4783666;30;20839;-94
2021/10/08 10:29:28;;;;;;;17.20;7.13;;;16.10;99.90;;;;;;4774461;30;20534;-94
2021/10/08 10:31:55;;;;;;;10.60;5.80;;;16.10;99.90;;;;;;4769954;30;20898;-96
2021/10/08 10:34:21;;;;;;;12.37;7.27;;;16.10;99.90;;;;;;4769164;30;20501;-96
2021/10/08 10:36:48;;;;;;;14.83;6.63;;;16.10;99.90;;;;;;4787088;29;20526;-95
2021/10/08 10:39:19;;;;;;;10.40;6.40;;;16.10;99.90;;;;;;4775395;30;20488;-94
2021/10/08 10:42:04;;;;;;;9.00;7.03;;;16.10;99.90;;;;;;4784806;30;20482;-94
2021/10/08 10:44:41;;;;;;;15.70;7.60;;;16.10;99.90;;;;;;4781531;29;20539;-93
2021/10/08 10:47:29;;;;;;;9.10;7.00;;;16.20;99.90;;;;;;4807367;29;20417;-94
2021/10/08 10:50:14;;;;;;;11.33;7.30;;;16.20;99.90;;;;;;4789941;29;20529;-95
2021/10/08 10:52:49;;;;;;;9.37;6.30;;;16.20;99.90;;;;;;4783684;29;20461;-94
2021/10/08 10:55:16;;;;;;;12.57;8.13;;;16.20;99.90;;;;;;4779803;29;20569;-95
2021/10/08 10:57:51;;;;;;;12.33;6.37;;;16.20;99.90;;;;;;4777037;30;20436;-96
2021/10/08 11:00:24;;;;;;;9.60;6.07;;;16.20;99.90;;;;;;4795146;29;20476;-95
2021/10/08 11:03:12;;;;;;;9.30;6.80;;;16.20;99.90;;;;;;4788039;30;20489;-94
2021/10/08 11:06:00;;;;;;;10.37;7.10;;;16.20;99.90;;;;;;4789437;30;20578;-96
2021/10/08 11:08:27;;;;;;;12.63;6.50;;;16.20;99.90;;;;;;4787045;30;20448;-95
2021/10/08 11:11:00;;;;;;;13.10;6.90;;;16.30;99.90;;;;;;4782130;30;20470;-95
2021/10/08 11:13:28;;;;;;;9.63;6.60;;;16.20;99.90;;;;;;4798348;29;20448;-96
2021/10/08 11:16:06;;;;;;;10.57;6.90;;;16.30;99.90;;;;;;4788144;29;20536;-96
2021/10/08 11:18:42;;;;;;;14.97;6.60;;;16.30;99.90;;;;;;4774956;30;20464;-95
2021/10/08 11:21:13;;;;;;;10.17;7.60;;;16.30;99.90;;;;;;4793594;29;20512;-95
2021/10/08 11:23:40;;;;;;;8.57;6.00;;;16.30;99.90;;;;;;4777497;30;20460;-95
2021/10/08 11:26:11;;;;;;;20.13;7.30;;;16.30;99.90;;;;;;4782848;29;20446;-96
2021/10/08 11:28:48;;;;;;;14.40;7.10;;;16.30;99.90;;;;;;4781418;30;20487;-96
2021/10/08 11:31:20;;;;;;;11.63;7.13;;;16.30;99.90;;;;;;4791248;30;20500;-96
2021/10/08 11:34:15;;;;;;;9.43;6.97;;;16.30;99.90;;;;;;4791441;30;20466;-94
2021/10/08 11:36:55;;;;;;;16.57;8.10;;;16.30;99.90;;;;;;4776930;30;20522;-95
2021/10/08 11:39:21;;;;;;;11.07;7.07;;;16.30;99.90;;;;;;4774849;30;20463;-95
2021/10/08 11:42:07;;;;;;;13.67;7.80;;;16.30;99.90;;;;;;4774381;30;20427;-95
2021/10/08 11:44:41;;;;;;;13.13;7.37;;;16.30;99.90;;;;;;4782196;29;20990;-95
2021/10/08 11:47:13;;;;;;;15.10;7.87;;;16.30;99.90;;;;;;4772289;30;20475;-96
2021/10/08 11:49:51;;;;;;;13.03;7.63;;;16.30;99.90;;;;;;4782832;30;20483;-95
2021/10/08 11:52:26;;;;;;;9.60;7.40;;;16.30;99.90;;;;;;4769260;30;20479;-95
2021/10/08 11:57:49;;;;;;;9.33;6.63;;;16.30;99.90;;;;;;4781463;29;20507;-72
2021/10/08 12:00:15;;;;;;;12.87;6.87;;;16.30;99.90;;;;;;4775770;29;20555;-69
2021/10/08 12:02:53;;;;;;;9.80;6.67;;;16.30;99.90;;;;;;4771414;30;20524;-71
2021/10/08 12:05:19;;;;;;;9.53;6.60;;;16.30;99.90;;;;;;4760723;30;20232;-71
2021/10/08 12:08:02;;;;;;;11.30;6.10;;;16.30;99.90;;;;;;4766444;30;20447;-71
2021/10/08 12:10:28;;;;;;;10.30;7.10;;;16.30;99.90;;;;;;4767933;30;20468;-73
2021/10/08 12:12:58;;;;;;;8.40;6.93;;;16.30;99.90;;;;;;4772691;30;20443;-70
2021/10/08 12:15:33;;;;;;;13.13;7.20;;;16.30;99.90;;;;;;4766523;30;20917;-71
2021/10/08 12:18:04;;;;;;;11.10;6.43;;;16.30;99.90;;;;;;4758704;30;20496;-71
2021/10/08 12:20:32;;;;;;;9.50;6.67;;;16.30;99.90;;;;;;4785138;29;20807;-71
2021/10/08 12:23:21;;;;;;;10.80;6.33;;;16.40;99.90;;;;;;4770320;30;20497;-71
2021/10/08 12:25:55;;;;;;;6.83;5.90;;;16.40;99.90;;;;;;4773634;29;20463;-70
2021/10/08 12:28:24;;;;;;;9.53;5.40;;;16.40;99.90;;;;;;4770083;30;20553;-71
2021/10/08 12:31:01;;;;;;;6.90;4.60;;;16.40;99.90;;;;;;4767556;30;21201;-71
2021/10/08 12:33:43;;;;;;;6.53;4.87;;;16.50;99.90;;;;;;4762523;30;20892;-71
2021/10/08 12:36:39;;;;;;;8.17;5.47;;;16.40;99.90;;;;;;4772959;29;20508;-71
2021/10/08 12:39:08;;;;;;;12.10;5.03;;;16.50;99.90;;;;;;4764970;29;20449;-71
2021/10/08 12:42:30;;;;;;;7.47;5.53;;;16.50;99.90;;;;;;4766912;30;20543;-71
2021/10/08 12:44:59;;;;;;;8.83;5.67;;;16.50;99.90;;;;;;4692004;30;20480;-71
2021/10/08 12:47:37;;;;;;;12.23;7.00;;;16.50;99.90;;;;;;4694216;30;20444;-71
2021/10/08 12:50:21;;;;;;;9.60;6.60;;;16.50;99.90;;;;;;4738135;29;20491;-71